KGCN/GCN METAR and TAF weather

Enter ICAO airport designator
Station Type Date Time Source
KGCN METAR 2019/10/21 05:54 UTC NOAA

KGCN 210554Z AUTO 03004KT 10SM CLR M03/M17 A3020 RMK AO2 SLP199 T10331167 10106 21050 53012


Station Type Date Time Source
KGCN Decoded METAR 2019/10/21 05:54 UTC NOAA

GRAND CANYON NATL PARK AIRPORT , AZ, United States (KGCN) 35-57N 112-09W 2016M
Oct 21, 2019 - 01:54 AM EDT / 2019.10.21 0554 UTC
Wind: from the NNE (030 degrees) at 5 MPH (4 KT):0
Visibility: 10 mile(s):0
Sky conditions: clear
Temperature: 26.1 F (-3.3 C)
Windchill: 19 F (-7 C):1
Dew Point: 1.9 F (-16.7 C)
Relative Humidity: 34%
Pressure (altimeter): 30.2 in. Hg (1022 hPa)
Pressure tendency: 0.04 inches (1.2 hPa) higher than three hours ago
ob: KGCN 210554Z AUTO 03004KT 10SM CLR M03/M17 A3020 RMK AO2 SLP199 T10331167 10106 21050 53012
cycle: 6

Station Type Date Time Source
KGCN TAF 2019/10/21 06:22 UTC NOAA

TAF KGCN 210520Z 2106/2206 VRB03KT P6SM SKC
FM211800 33010G16KT P6SM SKC
FM220100 VRB03KT P6SM SKC

Example: see airport list